Time;durP1;ratioP1;P1;durP2;ratioP2;P2;SDS_P1;SDS_P2;PMS_P1;PMS_P2;Temp;Humidity;BMP_temperature;BMP_pressure;BME280_temperature;BME280_humidity;BME280_pressure;Samples;Min_cycle;Max_cycle;Signal;HPM_P1;HPM_P2
2021/08/26 00:06:58;;;;;;;14.30;3.95;;;15.40;99.90;;;;;;6183833;23;20020;-65
2021/08/26 00:09:24;;;;;;;14.70;3.55;;;15.40;99.90;;;;;;6184045;23;20020;-65
2021/08/26 00:11:52;;;;;;;18.73;3.95;;;15.40;99.90;;;;;;6184046;23;20016;-65
2021/08/26 00:14:19;;;;;;;15.15;3.88;;;15.40;99.90;;;;;;6183319;23;20045;-65
2021/08/26 00:16:45;;;;;;;12.52;3.33;;;15.40;99.90;;;;;;6183503;23;20009;-65
2021/08/26 00:19:14;;;;;;;12.10;3.75;;;15.40;99.90;;;;;;6183782;23;20026;-65
2021/08/26 00:21:41;;;;;;;18.45;4.00;;;15.40;99.90;;;;;;6150771;23;20032;-65
2021/08/26 00:24:08;;;;;;;14.07;3.85;;;15.40;99.90;;;;;;6154488;23;20013;-65
2021/08/26 00:26:34;;;;;;;12.82;4.00;;;15.30;99.90;;;;;;6152187;23;20099;-65
2021/08/26 00:29:02;;;;;;;12.73;4.15;;;15.30;99.90;;;;;;6154149;23;20528;-65
2021/08/26 00:31:27;;;;;;;13.40;3.83;;;15.30;99.90;;;;;;6153387;23;20052;-65
2021/08/26 00:33:53;;;;;;;16.52;4.60;;;15.30;99.90;;;;;;6152753;23;20049;-65
2021/08/26 00:36:18;;;;;;;12.82;3.65;;;15.30;99.90;;;;;;6154222;23;20021;-65
2021/08/26 00:38:45;;;;;;;15.13;3.72;;;15.30;99.90;;;;;;6153142;23;20025;-65
2021/08/26 00:41:27;;;;;;;12.57;3.60;;;15.30;99.90;;;;;;6152816;23;20021;-65
2021/08/26 00:43:52;;;;;;;15.93;4.50;;;15.40;99.90;;;;;;6153413;23;20020;-65
2021/08/26 00:46:18;;;;;;;13.20;4.05;;;15.30;99.90;;;;;;6154542;23;20018;-65
2021/08/26 00:48:44;;;;;;;12.60;3.58;;;15.30;99.90;;;;;;6151219;23;20028;-65
2021/08/26 00:51:12;;;;;;;12.27;3.50;;;15.30;99.90;;;;;;6153898;23;20029;-65
2021/08/26 00:53:39;;;;;;;17.90;4.18;;;15.30;99.90;;;;;;6127426;23;20056;-64
2021/08/26 00:56:11;;;;;;;16.02;3.90;;;15.30;99.90;;;;;;6153587;23;20052;-64
2021/08/26 00:58:36;;;;;;;19.30;4.38;;;15.40;99.90;;;;;;6154201;23;20025;-64
2021/08/26 01:01:03;;;;;;;11.98;3.35;;;15.40;99.90;;;;;;6153525;23;20018;-64
2021/08/26 01:03:37;;;;;;;16.92;4.18;;;15.30;99.90;;;;;;6153496;23;20013;-64
2021/08/26 01:06:11;;;;;;;12.15;3.65;;;15.30;99.90;;;;;;6149756;23;20021;-65
2021/08/26 01:08:47;;;;;;;12.23;3.38;;;15.40;99.90;;;;;;6151754;23;20017;-65
2021/08/26 01:11:16;;;;;;;16.73;3.28;;;15.30;99.90;;;;;;6152721;23;20386;-65
2021/08/26 01:13:44;;;;;;;12.20;3.30;;;15.30;99.90;;;;;;6153254;23;20391;-65
2021/08/26 01:16:11;;;;;;;12.68;3.55;;;15.20;99.90;;;;;;6152375;23;20088;-65
2021/08/26 01:18:45;;;;;;;14.85;3.40;;;15.20;99.90;;;;;;6153741;23;20093;-65
2021/08/26 01:21:13;;;;;;;11.60;3.15;;;15.20;99.90;;;;;;6156231;23;20386;-65
2021/08/26 01:23:44;;;;;;;13.25;3.42;;;15.30;99.90;;;;;;6184266;23;20052;-65
2021/08/26 01:26:35;;;;;;;12.43;3.17;;;15.20;99.90;;;;;;6182487;23;20551;-65
2021/08/26 01:29:04;;;;;;;14.13;3.83;;;15.20;99.90;;;;;;6183123;23;20020;-65
2021/08/26 01:31:31;;;;;;;12.73;3.63;;;15.20;99.90;;;;;;6131301;23;20441;-65
2021/08/26 01:33:57;;;;;;;15.07;2.95;;;15.20;99.90;;;;;;6180515;23;20433;-65
2021/08/26 01:36:27;;;;;;;12.85;3.33;;;15.20;99.90;;;;;;6156522;23;20045;-65
2021/08/26 01:38:59;;;;;;;14.40;3.33;;;15.20;99.90;;;;;;6182760;23;20096;-65
2021/08/26 01:41:37;;;;;;;10.50;2.85;;;15.20;99.90;;;;;;6182825;23;20027;-65
2021/08/26 01:44:03;;;;;;;15.57;3.28;;;15.20;99.90;;;;;;6181766;23;20063;-65
2021/08/26 01:46:28;;;;;;;11.00;2.75;;;15.20;99.90;;;;;;6181915;23;20017;-65
2021/08/26 01:48:54;;;;;;;12.13;2.90;;;15.30;99.90;;;;;;6182115;23;20092;-65
2021/08/26 01:51:19;;;;;;;13.45;3.17;;;15.30;99.90;;;;;;6182814;23;20013;-65
2021/08/26 01:53:45;;;;;;;10.43;2.35;;;15.10;99.90;;;;;;6182647;23;20024;-65
2021/08/26 01:56:10;;;;;;;11.73;2.47;;;15.20;99.90;;;;;;6183696;23;20020;-65
2021/08/26 01:58:36;;;;;;;13.10;2.95;;;15.20;99.90;;;;;;6182701;23;20020;-65
2021/08/26 02:01:01;;;;;;;10.02;2.45;;;15.10;99.90;;;;;;6182165;23;20049;-65
2021/08/26 02:03:27;;;;;;;9.68;2.65;;;15.10;99.90;;;;;;6156783;23;20021;-65
2021/08/26 02:05:53;;;;;;;12.20;2.47;;;15.00;99.90;;;;;;6182423;23;20013;-65
2021/08/26 02:08:18;;;;;;;11.70;2.65;;;15.00;99.90;;;;;;6182651;23;20059;-65
2021/08/26 02:10:44;;;;;;;11.55;2.30;;;15.00;99.90;;;;;;6182500;23;20017;-65
2021/08/26 02:13:09;;;;;;;12.52;2.72;;;15.00;99.90;;;;;;6183274;23;20091;-65
2021/08/26 02:15:35;;;;;;;11.65;2.65;;;15.10;99.90;;;;;;6182251;23;20424;-65
2021/08/26 02:18:00;;;;;;;8.02;2.00;;;15.00;99.90;;;;;;6181587;23;20025;-65
2021/08/26 02:20:26;;;;;;;11.18;2.60;;;15.00;99.90;;;;;;6155171;23;20020;-65
2021/08/26 02:22:51;;;;;;;9.40;1.95;;;15.00;99.90;;;;;;6151654;23;20028;-65
2021/08/26 02:25:17;;;;;;;10.70;2.42;;;15.00;99.90;;;;;;6152537;23;20487;-65
2021/08/26 02:27:42;;;;;;;12.82;2.60;;;15.00;99.90;;;;;;6153315;23;20006;-65
2021/08/26 02:30:09;;;;;;;12.40;2.25;;;14.90;99.90;;;;;;6150514;23;20041;-65
2021/08/26 02:32:36;;;;;;;10.55;2.60;;;14.90;99.90;;;;;;6152353;23;20018;-65
2021/08/26 02:35:02;;;;;;;9.55;1.98;;;14.90;99.90;;;;;;6153611;23;20014;-65
2021/08/26 02:37:27;;;;;;;10.85;2.38;;;14.90;99.90;;;;;;6153582;23;20504;-65
2021/08/26 02:39:53;;;;;;;10.27;2.25;;;14.90;99.90;;;;;;6153511;23;20049;-65
2021/08/26 02:42:19;;;;;;;9.98;2.40;;;14.90;99.90;;;;;;6153657;23;20009;-65
2021/08/26 02:44:44;;;;;;;9.40;2.28;;;14.90;99.90;;;;;;6153310;23;20307;-65
2021/08/26 02:47:10;;;;;;;7.15;1.80;;;14.90;99.90;;;;;;6151811;23;20338;-65
2021/08/26 02:49:37;;;;;;;8.73;2.22;;;14.80;99.90;;;;;;6153293;23;20044;-65
2021/08/26 02:52:06;;;;;;;9.02;2.20;;;14.80;99.90;;;;;;6152911;23;20019;-65
2021/08/26 02:54:32;;;;;;;7.57;2.08;;;14.80;99.90;;;;;;6150691;23;20018;-65
2021/08/26 02:56:57;;;;;;;8.68;2.22;;;14.80;99.90;;;;;;6150089;23;20323;-64
2021/08/26 02:59:23;;;;;;;6.10;1.85;;;14.70;99.90;;;;;;6152662;23;20014;-64
2021/08/26 03:01:48;;;;;;;11.25;2.78;;;14.80;99.90;;;;;;6151580;23;20017;-64
2021/08/26 03:04:14;;;;;;;9.07;1.92;;;14.80;99.90;;;;;;6150023;23;20019;-64
2021/08/26 03:06:39;;;;;;;11.13;2.30;;;14.70;99.90;;;;;;6153541;23;20054;-64
2021/08/26 03:09:05;;;;;;;6.95;1.92;;;14.80;99.90;;;;;;6152593;23;20426;-64
2021/08/26 03:11:31;;;;;;;10.38;2.03;;;14.70;99.90;;;;;;6151573;23;20016;-64
2021/08/26 03:13:56;;;;;;;8.43;1.67;;;14.70;99.90;;;;;;6153073;23;20064;-64
2021/08/26 03:16:22;;;;;;;12.55;2.80;;;14.80;99.90;;;;;;6151162;23;20113;-64
2021/08/26 03:18:47;;;;;;;9.40;2.25;;;14.80;99.90;;;;;;6151708;23;20022;-64
2021/08/26 03:21:14;;;;;;;8.82;2.53;;;14.80;99.90;;;;;;6156700;23;20028;-64
2021/08/26 03:23:40;;;;;;;11.52;2.17;;;14.80;99.90;;;;;;6156108;23;20025;-64
2021/08/26 03:26:06;;;;;;;9.02;2.40;;;14.80;99.90;;;;;;6181692;23;20028;-64
2021/08/26 03:28:31;;;;;;;9.48;2.33;;;14.80;99.90;;;;;;6182328;23;20012;-64
2021/08/26 03:30:57;;;;;;;9.43;2.38;;;14.80;99.90;;;;;;6182016;23;20021;-64
2021/08/26 03:33:22;;;;;;;11.35;2.40;;;14.80;99.90;;;;;;6153821;23;20016;-64
2021/08/26 03:35:49;;;;;;;10.32;2.35;;;14.80;99.90;;;;;;6181973;23;20068;-64
2021/08/26 03:38:15;;;;;;;10.48;2.10;;;14.70;99.90;;;;;;6131476;23;20013;-64
2021/08/26 03:40:41;;;;;;;7.20;2.50;;;14.70;99.90;;;;;;6181735;23;20016;-64
2021/08/26 03:43:07;;;;;;;12.27;2.70;;;14.70;99.90;;;;;;6182040;23;20013;-64
2021/08/26 03:45:33;;;;;;;12.43;2.80;;;14.60;99.90;;;;;;6156081;23;20476;-64
2021/08/26 03:47:58;;;;;;;9.88;2.55;;;14.60;99.90;;;;;;6154580;23;20013;-64
2021/08/26 03:50:24;;;;;;;12.13;2.60;;;14.60;99.90;;;;;;6182057;23;20013;-64
2021/08/26 03:52:49;;;;;;;9.82;2.67;;;14.60;99.90;;;;;;6182124;23;20496;-65
2021/08/26 03:55:15;;;;;;;6.28;1.70;;;14.70;99.90;;;;;;6181600;23;20025;-65
2021/08/26 03:57:40;;;;;;;10.93;2.42;;;14.70;99.90;;;;;;6181890;23;20024;-65
2021/08/26 04:00:07;;;;;;;11.32;2.67;;;14.70;99.90;;;;;;6154394;23;20025;-65
2021/08/26 04:02:32;;;;;;;10.32;2.70;;;14.60;99.90;;;;;;6180514;23;20092;-65
2021/08/26 04:04:58;;;;;;;9.55;2.38;;;14.60;99.90;;;;;;6182241;23;20088;-65
2021/08/26 04:07:25;;;;;;;9.27;2.83;;;14.60;99.90;;;;;;6154616;23;20105;-65
2021/08/26 04:09:51;;;;;;;10.38;2.55;;;14.60;99.90;;;;;;6181835;23;20040;-65
2021/08/26 04:12:16;;;;;;;10.57;2.35;;;14.60;99.90;;;;;;6181808;23;20009;-65
2021/08/26 04:14:42;;;;;;;16.70;2.92;;;14.60;99.90;;;;;;6181276;23;20051;-65
2021/08/26 04:17:07;;;;;;;12.25;2.63;;;14.60;99.90;;;;;;6181816;23;20017;-65
2021/08/26 04:19:33;;;;;;;9.77;2.60;;;14.70;99.90;;;;;;6181071;23;20043;-65
2021/08/26 04:21:59;;;;;;;9.65;2.97;;;14.60;99.90;;;;;;6180611;23;20024;-65
2021/08/26 04:24:24;;;;;;;12.18;3.13;;;14.70;99.90;;;;;;6155278;23;20368;-65
2021/08/26 04:26:50;;;;;;;11.13;2.53;;;14.70;99.90;;;;;;6181063;23;20025;-65
2021/08/26 04:29:15;;;;;;;12.18;2.75;;;14.70;99.90;;;;;;6155373;23;20017;-65
2021/08/26 04:31:41;;;;;;;13.80;2.97;;;14.70;99.90;;;;;;6155112;23;20153;-65
2021/08/26 04:34:07;;;;;;;9.82;3.13;;;14.60;99.90;;;;;;6180860;23;20010;-65
2021/08/26 04:36:32;;;;;;;9.90;3.08;;;14.60;99.90;;;;;;6131104;23;20460;-65
2021/08/26 04:38:58;;;;;;;10.25;2.80;;;14.60;99.90;;;;;;6156025;23;20024;-65
2021/08/26 04:41:24;;;;;;;10.38;3.30;;;14.60;99.90;;;;;;6180579;23;20017;-65
2021/08/26 04:43:49;;;;;;;12.20;3.33;;;14.60;99.90;;;;;;6179498;23;20017;-65
2021/08/26 04:46:15;;;;;;;11.82;3.10;;;14.50;99.90;;;;;;6156995;23;20045;-65
2021/08/26 04:48:40;;;;;;;13.45;3.63;;;14.50;99.90;;;;;;6182604;23;20393;-65
2021/08/26 04:51:06;;;;;;;14.30;3.25;;;14.40;99.90;;;;;;6183556;23;20330;-65
2021/08/26 04:53:31;;;;;;;12.32;3.45;;;14.40;99.90;;;;;;6157577;23;20016;-65
2021/08/26 04:55:57;;;;;;;12.45;3.03;;;14.40;99.90;;;;;;6183495;23;20024;-65
2021/08/26 04:58:22;;;;;;;11.90;2.85;;;14.50;99.90;;;;;;6156710;23;20024;-65
2021/08/26 05:00:48;;;;;;;13.00;3.65;;;14.50;99.90;;;;;;6156997;23;20064;-65
2021/08/26 05:03:14;;;;;;;15.73;3.45;;;14.50;99.90;;;;;;6182646;23;20024;-65
2021/08/26 05:05:40;;;;;;;12.77;3.53;;;14.60;99.90;;;;;;6156628;23;20023;-65
2021/08/26 05:08:05;;;;;;;10.18;3.58;;;14.60;99.90;;;;;;6155746;23;20671;-65
2021/08/26 05:10:31;;;;;;;18.90;4.40;;;14.70;99.90;;;;;;6182021;23;20384;-65
2021/08/26 05:12:57;;;;;;;13.95;3.78;;;14.80;99.90;;;;;;6183116;23;20013;-65
2021/08/26 05:15:22;;;;;;;12.90;3.33;;;14.80;99.90;;;;;;6156897;23;20088;-65
2021/08/26 05:17:48;;;;;;;17.00;3.22;;;14.90;99.90;;;;;;6183282;23;20023;-65
2021/08/26 05:20:14;;;;;;;14.60;3.05;;;14.90;99.90;;;;;;6182843;23;20013;-65
2021/08/26 05:22:39;;;;;;;14.02;3.40;;;15.00;99.90;;;;;;6151839;23;20107;-65
2021/08/26 05:25:05;;;;;;;18.80;3.58;;;15.20;99.90;;;;;;6153034;23;20021;-65
2021/08/26 05:27:31;;;;;;;15.10;3.17;;;15.30;99.90;;;;;;6151652;23;20080;-65
2021/08/26 05:29:56;;;;;;;11.52;3.17;;;15.50;99.90;;;;;;6153076;23;20010;-65
2021/08/26 05:32:22;;;;;;;17.17;3.90;;;15.50;99.90;;;;;;6151767;23;20009;-65
2021/08/26 05:34:48;;;;;;;13.02;3.63;;;15.60;99.90;;;;;;6152407;23;20026;-65
2021/08/26 05:37:13;;;;;;;11.02;3.60;;;15.60;99.90;;;;;;6152556;23;20093;-65
2021/08/26 05:39:39;;;;;;;11.80;3.47;;;15.70;99.90;;;;;;6151052;23;20076;-65
2021/08/26 05:42:04;;;;;;;13.70;4.13;;;15.80;99.90;;;;;;6151470;23;20071;-65
2021/08/26 05:44:30;;;;;;;14.40;3.97;;;15.90;99.90;;;;;;6152464;23;20471;-64
2021/08/26 05:46:55;;;;;;;9.60;3.40;;;15.80;99.90;;;;;;6151621;23;20032;-65
2021/08/26 05:49:21;;;;;;;14.30;3.85;;;16.20;99.90;;;;;;6153767;23;20444;-64
2021/08/26 05:51:46;;;;;;;14.65;3.72;;;16.90;99.90;;;;;;6152525;23;20045;-65
2021/08/26 05:54:12;;;;;;;13.13;3.90;;;17.70;99.90;;;;;;6152321;23;20009;-64
2021/08/26 05:56:38;;;;;;;14.55;4.30;;;18.40;99.90;;;;;;6151937;23;20021;-64
2021/08/26 05:59:03;;;;;;;13.52;4.80;;;19.00;99.90;;;;;;6153056;23;20017;-64
2021/08/26 06:01:30;;;;;;;9.75;3.38;;;19.30;99.90;;;;;;6152570;23;20014;-64
2021/08/26 06:03:57;;;;;;;16.55;4.50;;;20.00;99.90;;;;;;6151327;23;20315;-65
2021/08/26 06:06:22;;;;;;;10.95;3.65;;;20.60;99.90;;;;;;6150618;23;20524;-65
2021/08/26 06:08:48;;;;;;;21.20;4.40;;;21.00;99.90;;;;;;6148540;23;20013;-65
2021/08/26 06:11:14;;;;;;;10.40;3.42;;;21.50;99.90;;;;;;6149858;23;20024;-65
2021/08/26 06:13:40;;;;;;;13.63;3.80;;;21.70;99.90;;;;;;6151135;23;20013;-65
2021/08/26 06:16:05;;;;;;;18.10;4.28;;;22.10;99.90;;;;;;6151505;23;20017;-65
2021/08/26 06:18:31;;;;;;;11.63;3.92;;;22.30;99.90;;;;;;6149520;23;20393;-65
2021/08/26 06:20:57;;;;;;;14.00;3.67;;;22.40;99.90;;;;;;6151842;23;20461;-65
2021/08/26 06:23:23;;;;;;;16.73;4.10;;;22.50;99.90;;;;;;6153788;23;20488;-65
2021/08/26 06:25:48;;;;;;;15.65;4.03;;;22.80;99.90;;;;;;6182082;23;20020;-65
2021/08/26 06:28:14;;;;;;;11.77;3.75;;;23.10;99.40;;;;;;6182311;23;20024;-65
2021/08/26 06:30:39;;;;;;;15.65;3.70;;;23.60;99.50;;;;;;6181916;23;20013;-65
2021/08/26 06:33:05;;;;;;;10.20;4.03;;;24.00;98.80;;;;;;6182346;23;20024;-65
2021/08/26 06:35:32;;;;;;;13.60;4.00;;;24.20;98.10;;;;;;6155727;23;20043;-65
2021/08/26 06:37:57;;;;;;;12.88;3.95;;;24.40;97.20;;;;;;6180753;23;20381;-65
2021/08/26 06:40:23;;;;;;;9.30;3.20;;;24.50;97.10;;;;;;6181261;23;20096;-65
2021/08/26 06:42:48;;;;;;;14.60;3.90;;;24.80;96.40;;;;;;6153934;23;20330;-65
2021/08/26 06:45:14;;;;;;;15.13;4.22;;;25.00;96.20;;;;;;6155262;23;20024;-65
2021/08/26 06:47:39;;;;;;;13.32;4.10;;;25.10;96.40;;;;;;6182904;23;20009;-69
2021/08/26 06:50:05;;;;;;;13.73;4.15;;;25.40;95.60;;;;;;6156213;23;20107;-69
2021/08/26 06:52:31;;;;;;;15.60;3.70;;;25.80;95.00;;;;;;6156663;23;20013;-69
2021/08/26 06:54:57;;;;;;;15.25;4.28;;;25.80;92.70;;;;;;6156034;23;20099;-69
2021/08/26 06:57:24;;;;;;;15.18;4.68;;;25.20;94.20;;;;;;6156920;23;20021;-68
2021/08/26 06:59:49;;;;;;;13.70;4.03;;;26.00;94.50;;;;;;6156107;23;20059;-68
2021/08/26 07:02:15;;;;;;;13.23;3.92;;;26.50;94.10;;;;;;6156268;23;20017;-68
2021/08/26 07:04:40;;;;;;;19.63;5.00;;;26.70;92.40;;;;;;6156447;23;20017;-69
2021/08/26 07:07:06;;;;;;;13.80;4.72;;;26.40;91.00;;;;;;6155760;23;20013;-69
2021/08/26 07:09:32;;;;;;;13.55;4.00;;;26.90;91.60;;;;;;6182513;23;20009;-71
2021/08/26 07:11:57;;;;;;;15.43;4.38;;;27.20;90.10;;;;;;6156395;23;20040;-70
2021/08/26 07:14:23;;;;;;;11.95;4.05;;;26.30;91.00;;;;;;6154633;23;20009;-70
2021/08/26 07:16:48;;;;;;;16.50;4.40;;;26.70;90.70;;;;;;6154821;23;20096;-68
2021/08/26 07:19:14;;;;;;;14.45;4.30;;;27.00;89.90;;;;;;6181396;23;20416;-69
2021/08/26 07:21:41;;;;;;;10.65;4.32;;;27.10;89.30;;;;;;6182154;23;20071;-68
2021/08/26 07:24:07;;;;;;;17.40;4.57;;;26.80;90.70;;;;;;6155671;23;20095;-68
2021/08/26 07:26:32;;;;;;;18.00;4.97;;;26.30;90.00;;;;;;6131588;23;20060;-68
2021/08/26 07:28:58;;;;;;;16.75;4.50;;;25.60;91.50;;;;;;6154976;23;20064;-68
2021/08/26 07:31:24;;;;;;;19.13;4.95;;;25.40;91.50;;;;;;6182909;23;20043;-68
2021/08/26 07:33:50;;;;;;;17.63;4.57;;;25.00;92.50;;;;;;6156147;23;20017;-68
2021/08/26 07:36:16;;;;;;;19.67;5.05;;;25.00;93.00;;;;;;6155690;23;20017;-68
2021/08/26 07:38:42;;;;;;;17.10;4.63;;;25.00;93.60;;;;;;6152831;23;20364;-68
2021/08/26 07:41:08;;;;;;;14.65;4.72;;;25.00;94.00;;;;;;6154416;23;20088;-68
2021/08/26 07:43:36;;;;;;;18.38;4.85;;;25.10;94.40;;;;;;6154867;23;20024;-68
2021/08/26 07:46:02;;;;;;;20.70;5.32;;;24.60;94.40;;;;;;6155183;23;20063;-68
2021/08/26 07:48:28;;;;;;;16.63;4.85;;;23.40;96.00;;;;;;6155389;23;20013;-68
2021/08/26 07:50:56;;;;;;;18.35;5.30;;;23.10;97.20;;;;;;6154470;23;20448;-68
2021/08/26 07:53:22;;;;;;;18.70;4.90;;;22.50;98.80;;;;;;6155074;23;20356;-69
2021/08/26 07:55:48;;;;;;;16.73;4.78;;;22.30;99.00;;;;;;6153769;23;20187;-69
2021/08/26 07:58:13;;;;;;;14.98;4.97;;;22.20;99.10;;;;;;6180874;23;20037;-64
2021/08/26 08:00:39;;;;;;;21.05;4.57;;;22.10;99.60;;;;;;6182021;23;20044;-64
2021/08/26 08:03:05;;;;;;;13.68;3.92;;;22.10;99.90;;;;;;6155548;23;20021;-64
2021/08/26 08:05:31;;;;;;;21.08;5.57;;;22.10;99.90;;;;;;6155168;23;20052;-65
2021/08/26 08:07:57;;;;;;;17.08;4.55;;;21.60;99.70;;;;;;6154547;23;20392;-64
2021/08/26 08:10:23;;;;;;;17.80;4.70;;;21.50;99.90;;;;;;6154647;23;20058;-64
2021/08/26 08:12:49;;;;;;;16.70;4.50;;;21.30;99.90;;;;;;6179719;23;20383;-65
2021/08/26 08:15:15;;;;;;;20.25;4.47;;;21.40;99.90;;;;;;6180380;23;20139;-65
2021/08/26 08:17:41;;;;;;;16.42;4.50;;;21.20;99.90;;;;;;6180004;23;20032;-65
2021/08/26 08:20:09;;;;;;;15.50;4.30;;;21.10;99.50;;;;;;6182870;23;20013;-65
2021/08/26 08:22:35;;;;;;;15.25;4.35;;;21.20;99.90;;;;;;6181718;23;20092;-64
2021/08/26 08:25:01;;;;;;;18.33;4.75;;;20.90;99.90;;;;;;6181699;23;20101;-65
2021/08/26 08:27:26;;;;;;;14.45;4.43;;;20.80;99.90;;;;;;6181994;23;20460;-64
2021/08/26 08:29:52;;;;;;;15.55;4.13;;;20.90;99.90;;;;;;6182935;23;20048;-64
2021/08/26 08:32:18;;;;;;;18.75;5.10;;;20.90;99.90;;;;;;6181883;23;20087;-64
2021/08/26 08:34:43;;;;;;;15.93;4.53;;;20.90;99.90;;;;;;6181191;23;20075;-65
2021/08/26 08:37:09;;;;;;;14.15;4.72;;;21.00;99.90;;;;;;6164938;23;20018;-72
2021/08/26 08:39:35;;;;;;;18.98;4.90;;;20.90;99.90;;;;;;6126898;23;20468;-71
2021/08/26 08:42:00;;;;;;;14.43;4.18;;;21.30;99.90;;;;;;6126959;23;20024;-70
2021/08/26 08:44:26;;;;;;;17.67;3.85;;;21.70;99.90;;;;;;6153766;23;20315;-70
2021/08/26 08:46:56;;;;;;;14.38;4.55;;;21.70;99.90;;;;;;6103319;23;20010;-71
2021/08/26 08:49:23;;;;;;;18.17;5.10;;;21.80;99.90;;;;;;6127681;23;20430;-70
2021/08/26 08:51:53;;;;;;;15.60;4.13;;;21.80;99.90;;;;;;6154409;23;20233;-71
2021/08/26 08:54:20;;;;;;;19.23;4.95;;;21.70;99.80;;;;;;6102797;23;20005;-71
2021/08/26 08:56:45;;;;;;;17.65;4.88;;;21.50;99.90;;;;;;6127601;23;20483;-70
2021/08/26 08:59:11;;;;;;;16.13;4.55;;;21.50;99.90;;;;;;6127643;23;20029;-71
2021/08/26 09:01:37;;;;;;;18.20;4.70;;;21.30;99.90;;;;;;6154187;23;20448;-71
2021/08/26 09:04:06;;;;;;;12.38;4.35;;;21.00;99.90;;;;;;6128222;23;20070;-70
2021/08/26 09:06:42;;;;;;;13.45;4.03;;;21.00;99.90;;;;;;6127166;23;20476;-70
2021/08/26 09:09:10;;;;;;;14.57;4.85;;;21.20;99.90;;;;;;6128311;23;20017;-70
2021/08/26 09:11:37;;;;;;;15.38;4.03;;;21.20;99.90;;;;;;6154066;23;20010;-70
2021/08/26 09:14:14;;;;;;;13.15;3.53;;;21.00;99.90;;;;;;6128359;23;20018;-70
2021/08/26 09:16:42;;;;;;;14.23;4.25;;;21.30;99.90;;;;;;6127382;23;20446;-70
2021/08/26 09:19:31;;;;;;;16.42;4.15;;;21.50;99.90;;;;;;6154489;23;20061;-71
2021/08/26 09:21:59;;;;;;;14.10;4.35;;;21.60;99.90;;;;;;6102680;23;20017;-70
2021/08/26 09:24:42;;;;;;;16.98;4.40;;;21.80;99.90;;;;;;6153837;23;20551;-71
2021/08/26 09:27:07;;;;;;;14.23;4.65;;;21.60;99.80;;;;;;6103054;23;20326;-71
2021/08/26 09:30:00;;;;;;;14.30;4.00;;;22.00;99.90;;;;;;6153560;23;20017;-71
2021/08/26 09:32:59;;;;;;;13.77;3.95;;;22.20;99.90;;;;;;6126666;23;20318;-71
2021/08/26 09:35:33;;;;;;;11.02;3.40;;;22.20;99.30;;;;;;6153153;23;20009;-70
2021/08/26 09:38:04;;;;;;;15.13;4.38;;;22.20;98.90;;;;;;6149391;23;20484;-71
2021/08/26 09:40:47;;;;;;;12.60;4.28;;;22.00;98.40;;;;;;6151088;23;20449;-71
2021/08/26 09:43:13;;;;;;;14.05;4.05;;;21.70;99.00;;;;;;6125858;23;20508;-70
2021/08/26 09:45:46;;;;;;;15.13;4.47;;;21.20;99.80;;;;;;6150858;23;20474;-70
2021/08/26 09:48:14;;;;;;;13.18;3.80;;;21.10;99.90;;;;;;6152129;23;20104;-70
2021/08/26 09:50:53;;;;;;;12.40;3.50;;;21.20;99.90;;;;;;6150941;23;20013;-70
2021/08/26 09:53:33;;;;;;;12.27;4.15;;;21.40;99.90;;;;;;6151822;23;20386;-70
2021/08/26 09:56:08;;;;;;;13.60;4.13;;;21.50;99.90;;;;;;6150367;23;20914;-70
2021/08/26 09:58:36;;;;;;;16.52;4.05;;;21.50;99.90;;;;;;6151695;23;20026;-70
2021/08/26 10:01:17;;;;;;;15.40;4.20;;;21.60;99.90;;;;;;6153640;23;20017;-71
2021/08/26 10:03:43;;;;;;;12.63;3.72;;;21.80;99.90;;;;;;6150484;23;20068;-65
2021/08/26 10:06:13;;;;;;;12.90;3.72;;;22.30;99.10;;;;;;6152207;23;20310;-65
2021/08/26 10:08:41;;;;;;;13.68;4.10;;;22.60;98.60;;;;;;6151413;23;20120;-64
2021/08/26 10:11:09;;;;;;;13.77;4.13;;;22.80;98.40;;;;;;6150470;23;20022;-64
2021/08/26 10:13:36;;;;;;;13.30;3.90;;;22.80;97.20;;;;;;6149160;23;20508;-65
2021/08/26 10:16:02;;;;;;;12.02;3.53;;;22.60;97.70;;;;;;6150266;23;20021;-64
2021/08/26 10:18:29;;;;;;;9.75;3.42;;;22.80;98.20;;;;;;6152105;23;20018;-64
2021/08/26 10:20:55;;;;;;;11.00;3.65;;;23.10;97.70;;;;;;6151483;23;20010;-64
2021/08/26 10:23:22;;;;;;;15.90;3.80;;;23.20;97.40;;;;;;6152029;23;20013;-64
2021/08/26 10:25:50;;;;;;;11.27;4.18;;;23.20;97.30;;;;;;6153015;23;20092;-69
2021/08/26 10:28:17;;;;;;;10.43;3.70;;;23.20;96.50;;;;;;6150900;23;20005;-71
2021/08/26 10:30:43;;;;;;;9.07;3.45;;;22.50;96.10;;;;;;6151418;23;20445;-71
2021/08/26 10:33:13;;;;;;;10.93;3.65;;;22.40;97.70;;;;;;6152281;23;20020;-72
2021/08/26 10:35:54;;;;;;;11.60;3.80;;;22.40;98.40;;;;;;6151713;23;20334;-71
2021/08/26 10:38:20;;;;;;;9.70;3.53;;;22.10;96.70;;;;;;6150209;23;20368;-65
2021/08/26 10:40:46;;;;;;;14.65;5.10;;;21.70;99.20;;;;;;6153424;23;20018;-65
2021/08/26 10:43:36;;;;;;;17.35;4.88;;;21.80;99.90;;;;;;6150408;23;20020;-65
2021/08/26 10:46:11;;;;;;;13.57;4.38;;;21.40;99.90;;;;;;6150888;23;20029;-65
2021/08/26 10:48:37;;;;;;;14.05;4.00;;;20.50;99.90;;;;;;6152589;23;20013;-64
2021/08/26 10:51:15;;;;;;;14.27;4.03;;;20.50;99.90;;;;;;6150351;23;20536;-64
2021/08/26 10:53:45;;;;;;;15.05;4.75;;;20.70;99.90;;;;;;6149154;23;20009;-65
2021/08/26 10:56:22;;;;;;;11.75;4.18;;;20.70;99.90;;;;;;6152443;23;20078;-64
2021/08/26 10:58:50;;;;;;;11.90;3.85;;;20.80;99.90;;;;;;6150128;23;20698;-64
2021/08/26 11:01:27;;;;;;;14.23;4.05;;;20.90;99.90;;;;;;6149893;23;20468;-64
2021/08/26 11:04:01;;;;;;;12.23;3.80;;;21.20;99.90;;;;;;6150054;23;20026;-64
2021/08/26 11:06:28;;;;;;;13.63;3.85;;;21.60;99.90;;;;;;6150516;23;20520;-64
2021/08/26 11:09:12;;;;;;;13.73;4.57;;;21.10;99.90;;;;;;6150657;23;20013;-64
2021/08/26 11:11:40;;;;;;;13.20;4.07;;;21.80;99.90;;;;;;6153168;23;20013;-64
2021/08/26 11:14:06;;;;;;;11.63;3.35;;;21.60;99.90;;;;;;6152496;23;20017;-64
2021/08/26 11:16:35;;;;;;;12.55;3.35;;;21.50;99.90;;;;;;6150500;23;20025;-64
2021/08/26 11:19:04;;;;;;;16.48;3.25;;;21.30;99.90;;;;;;6152701;23;20028;-64
2021/08/26 11:21:44;;;;;;;17.02;3.58;;;21.00;99.90;;;;;;6152932;23;20014;-64
2021/08/26 11:24:16;;;;;;;15.55;3.22;;;20.90;99.90;;;;;;6152992;23;20013;-64
2021/08/26 11:26:45;;;;;;;;;;;20.80;99.90;;;;;;6150853;23;20104;-64
2021/08/26 11:29:23;;;;;;;8.75;2.65;;;20.50;99.90;;;;;;6150879;23;19928;-64
2021/08/26 11:31:54;;;;;;;9.02;2.35;;;20.80;99.90;;;;;;6152401;23;20097;-64
2021/08/26 11:34:27;;;;;;;;;;;21.30;99.50;;;;;;6153078;23;20044;-64
2021/08/26 11:37:03;;;;;;;8.73;2.17;;;21.90;99.90;;;;;;6152333;23;19924;-64
2021/08/26 11:39:31;;;;;;;5.95;1.50;;;21.70;97.50;;;;;;6151844;23;20021;-64
2021/08/26 11:41:56;;;;;;;4.30;1.35;;;21.70;98.60;;;;;;6151733;23;20437;-64
2021/08/26 11:44:22;;;;;;;5.95;1.15;;;21.30;97.60;;;;;;6151592;23;20076;-64
2021/08/26 11:46:48;;;;;;;5.20;1.33;;;21.50;98.80;;;;;;6151770;23;20089;-64
2021/08/26 11:49:13;;;;;;;5.53;1.15;;;21.40;99.20;;;;;;6150592;23;20076;-64
2021/08/26 11:51:39;;;;;;;6.20;1.27;;;20.90;97.30;;;;;;6100641;23;20044;-64
2021/08/26 11:54:14;;;;;;;4.30;1.13;;;20.90;98.40;;;;;;6153156;23;20009;-64
2021/08/26 11:56:54;;;;;;;5.45;1.10;;;21.10;99.50;;;;;;6128757;23;20064;-63
2021/08/26 11:59:34;;;;;;;2.78;0.85;;;20.80;97.90;;;;;;6154148;23;20020;-64
2021/08/26 12:02:18;;;;;;;2.78;0.70;;;20.10;98.70;;;;;;6127626;23;20100;-64
2021/08/26 12:04:55;;;;;;;4.28;1.15;;;20.20;98.90;;;;;;6152723;23;20026;-64
2021/08/26 12:07:34;;;;;;;6.10;0.88;;;20.40;98.70;;;;;;6153895;23;20503;-64
2021/08/26 12:10:11;;;;;;;2.97;0.65;;;20.50;99.60;;;;;;6153956;23;20017;-64
2021/08/26 12:12:38;;;;;;;2.97;0.82;;;20.60;96.00;;;;;;6102703;23;20013;-64
2021/08/26 12:15:05;;;;;;;3.95;0.85;;;20.70;96.10;;;;;;6153792;23;20445;-64
2021/08/26 12:17:34;;;;;;;2.80;0.68;;;20.80;97.30;;;;;;6152906;23;20021;-66
2021/08/26 12:20:00;;;;;;;5.15;1.13;;;20.60;98.00;;;;;;6153851;23;20023;-66
2021/08/26 12:22:27;;;;;;;3.95;0.80;;;20.30;98.90;;;;;;6153600;23;20377;-66
2021/08/26 12:25:01;;;;;;;2.85;0.82;;;20.10;98.10;;;;;;6153225;23;20485;-65
2021/08/26 12:27:29;;;;;;;5.13;1.05;;;20.00;97.70;;;;;;6102076;23;20045;-65
2021/08/26 12:29:55;;;;;;;3.65;0.77;;;20.00;99.30;;;;;;6152278;23;20052;-65
2021/08/26 12:32:34;;;;;;;4.53;0.88;;;19.80;98.40;;;;;;6101876;23;20056;-65
2021/08/26 12:35:27;;;;;;;2.50;0.82;;;19.90;99.40;;;;;;6153928;23;20017;-65
2021/08/26 12:37:58;;;;;;;3.35;0.52;;;19.60;99.90;;;;;;6153286;23;20032;-65
2021/08/26 12:40:28;;;;;;;5.50;1.05;;;19.40;99.90;;;;;;6153447;23;20053;-65
2021/08/26 12:43:04;;;;;;;4.82;0.70;;;19.50;99.90;;;;;;6127291;23;20021;-65
2021/08/26 12:45:35;;;;;;;4.28;0.88;;;19.70;99.90;;;;;;6151244;23;20057;-65
2021/08/26 12:48:31;;;;;;;5.57;0.85;;;20.00;99.90;;;;;;6127051;23;20016;-65
2021/08/26 12:51:14;;;;;;;6.60;1.08;;;20.00;99.80;;;;;;6107779;23;20017;-65